Time;durP1;ratioP1;P1;durP2;ratioP2;P2;SDS_P1;SDS_P2;PMS_P1;PMS_P2;Temp;Humidity;BMP_temperature;BMP_pressure;BME280_temperature;BME280_humidity;BME280_pressure;Samples;Min_cycle;Max_cycle;Signal;HPM_P1;HPM_P2
2022/07/28 02:48:13;;;;;;;4.13;1.20;;;17.30;99.40;;;;;;4998517;23;92016;-78
2022/07/28 02:50:41;;;;;;;3.10;1.35;;;17.30;99.10;;;;;;4876701;28;92193;-77
2022/07/28 02:53:08;;;;;;;3.22;1.25;;;17.10;99.90;;;;;;4859184;28;93714;-78
2022/07/28 02:55:35;;;;;;;4.35;1.10;;;17.00;99.90;;;;;;4877212;28;92099;-80
2022/07/28 02:58:04;;;;;;;3.08;1.48;;;17.00;99.90;;;;;;4876783;28;92027;-78
2022/07/28 03:00:30;;;;;;;3.78;1.27;;;17.00;99.90;;;;;;4889007;28;92385;-79
2022/07/28 03:02:57;;;;;;;3.08;1.38;;;16.90;99.90;;;;;;4893554;28;93141;-78
2022/07/28 03:05:23;;;;;;;3.17;1.50;;;16.80;99.90;;;;;;4894520;28;92475;-77
2022/07/28 03:07:51;;;;;;;5.85;1.38;;;16.70;99.90;;;;;;4895065;28;92993;-78
2022/07/28 03:10:27;;;;;;;3.53;1.40;;;16.70;99.90;;;;;;4896365;28;91770;-77
2022/07/28 03:12:54;;;;;;;3.60;1.45;;;16.80;99.90;;;;;;4886499;28;92394;-77
2022/07/28 03:15:19;;;;;;;2.97;1.40;;;16.80;99.90;;;;;;4876285;28;92026;-77
2022/07/28 03:17:45;;;;;;;4.03;1.40;;;16.70;99.90;;;;;;4877368;28;92174;-78
2022/07/28 03:20:11;;;;;;;3.65;1.40;;;16.60;99.90;;;;;;4876375;28;92344;-78
2022/07/28 03:22:37;;;;;;;3.50;1.13;;;16.60;99.90;;;;;;4877853;28;92353;-77
2022/07/28 03:25:16;;;;;;;2.75;1.10;;;16.60;99.90;;;;;;4893955;28;92214;-77
2022/07/28 03:27:45;;;;;;;3.72;1.00;;;16.60;99.90;;;;;;4895332;28;92241;-78
2022/07/28 03:30:14;;;;;;;3.25;1.00;;;16.70;99.90;;;;;;4895105;28;91993;-77
2022/07/28 03:32:56;;;;;;;6.03;1.05;;;16.80;99.90;;;;;;4893201;28;93244;-79
2022/07/28 03:35:23;;;;;;;1.95;0.82;;;16.80;99.90;;;;;;4893744;28;92095;-77
2022/07/28 03:37:53;;;;;;;3.22;0.93;;;16.70;99.90;;;;;;4879977;28;91987;-79
2022/07/28 03:40:20;;;;;;;5.25;1.17;;;16.80;99.90;;;;;;4875993;28;91884;-78
2022/07/28 03:42:47;;;;;;;2.90;1.20;;;16.70;99.90;;;;;;4881731;28;92049;-78
2022/07/28 03:45:16;;;;;;;2.83;1.10;;;16.70;99.90;;;;;;4895200;28;92444;-80
2022/07/28 03:47:54;;;;;;;3.53;1.20;;;16.70;99.90;;;;;;4881362;28;92078;-76
2022/07/28 03:50:31;;;;;;;4.03;1.48;;;16.70;99.90;;;;;;4876242;28;91338;-77
2022/07/28 03:52:57;;;;;;;3.20;1.45;;;16.60;99.90;;;;;;4875248;28;92116;-76
2022/07/28 03:55:25;;;;;;;4.07;1.58;;;16.60;99.90;;;;;;4876125;28;92182;-78
2022/07/28 03:57:51;;;;;;;6.60;1.40;;;16.50;99.90;;;;;;4889145;28;93045;-79
2022/07/28 04:00:18;;;;;;;5.07;0.95;;;16.50;99.90;;;;;;4895369;28;92148;-79
2022/07/28 04:02:45;;;;;;;2.40;1.10;;;16.30;99.90;;;;;;4881088;28;92948;-78
2022/07/28 04:05:12;;;;;;;3.05;1.10;;;16.40;99.90;;;;;;4882438;28;92191;-78
2022/07/28 04:07:38;;;;;;;2.35;0.90;;;16.50;99.90;;;;;;4890403;28;92021;-78
2022/07/28 04:10:06;;;;;;;2.40;1.13;;;16.60;99.90;;;;;;4884818;28;92020;-78
2022/07/28 04:12:47;;;;;;;3.65;1.33;;;16.70;99.90;;;;;;4889199;28;94136;-79
2022/07/28 04:15:14;;;;;;;5.28;1.00;;;16.70;99.90;;;;;;4879587;28;92446;-79
2022/07/28 04:17:41;;;;;;;3.88;1.15;;;16.70;99.90;;;;;;4878459;28;92139;-77
2022/07/28 04:20:07;;;;;;;2.42;0.90;;;16.80;99.90;;;;;;4891315;28;92154;-79
2022/07/28 04:22:33;;;;;;;2.53;1.10;;;16.80;99.90;;;;;;4889977;28;93078;-77
2022/07/28 04:25:00;;;;;;;3.85;1.10;;;17.00;99.90;;;;;;4878338;28;93261;-79
2022/07/28 04:27:26;;;;;;;2.15;1.23;;;17.40;99.90;;;;;;4878751;28;91960;-79
2022/07/28 04:29:52;;;;;;;4.13;1.30;;;17.90;99.90;;;;;;4878926;28;92343;-78
2022/07/28 04:32:18;;;;;;;3.45;1.17;;;18.50;99.90;;;;;;4876916;28;92245;-80
2022/07/28 04:34:44;;;;;;;2.15;1.42;;;19.10;99.20;;;;;;4882481;28;92810;-79
2022/07/28 04:37:11;;;;;;;2.50;1.13;;;19.60;97.20;;;;;;4898048;28;92111;-83
2022/07/28 04:39:37;;;;;;;2.90;1.25;;;20.10;95.30;;;;;;4902029;28;91615;-84
2022/07/28 04:42:02;;;;;;;3.55;1.30;;;20.60;93.30;;;;;;4880657;28;92310;-82
2022/07/28 04:44:28;;;;;;;3.88;1.08;;;21.00;91.90;;;;;;4882205;28;91966;-83
2022/07/28 04:46:54;;;;;;;2.85;1.58;;;21.40;91.00;;;;;;4889350;28;93001;-84
2022/07/28 04:49:19;;;;;;;3.92;1.05;;;21.70;88.90;;;;;;4902844;28;91618;-82
2022/07/28 04:51:49;;;;;;;2.47;1.30;;;22.10;89.40;;;;;;4885870;28;92354;-81
2022/07/28 04:54:15;;;;;;;2.63;1.33;;;22.40;84.60;;;;;;4882739;28;93695;-83
2022/07/28 04:56:41;;;;;;;2.55;1.05;;;22.80;81.30;;;;;;4890762;28;92020;-85
2022/07/28 04:59:07;;;;;;;3.38;1.30;;;23.10;80.20;;;;;;4895126;28;91996;-85
2022/07/28 05:01:34;;;;;;;3.80;1.40;;;23.60;80.50;;;;;;4865385;29;91648;-85
2022/07/28 05:04:00;;;;;;;3.30;1.50;;;24.10;75.10;;;;;;4874244;28;92812;-84
2022/07/28 05:06:26;;;;;;;2.63;1.40;;;23.90;71.20;;;;;;4874935;28;92111;-83
2022/07/28 05:08:51;;;;;;;5.50;1.50;;;23.40;72.30;;;;;;4879849;28;92566;-81
2022/07/28 05:11:17;;;;;;;2.22;1.17;;;23.50;74.90;;;;;;4890306;28;93973;-82
2022/07/28 05:13:43;;;;;;;3.08;1.40;;;23.00;72.20;;;;;;4902575;28;94320;-83
2022/07/28 05:16:09;;;;;;;4.95;1.63;;;22.30;74.30;;;;;;4897610;28;92047;-83
2022/07/28 05:18:34;;;;;;;4.30;1.50;;;22.40;74.20;;;;;;4884350;28;92638;-81
2022/07/28 05:21:00;;;;;;;3.28;1.05;;;22.30;73.70;;;;;;4883120;28;92305;-83
2022/07/28 05:23:26;;;;;;;5.60;1.40;;;22.40;74.30;;;;;;4882982;28;91937;-82
2022/07/28 05:25:51;;;;;;;7.28;1.15;;;22.60;72.30;;;;;;4883597;28;92428;-81
2022/07/28 05:28:17;;;;;;;2.42;1.08;;;23.20;71.90;;;;;;4883900;28;91251;-82
2022/07/28 05:30:43;;;;;;;7.90;1.80;;;22.80;71.80;;;;;;4883190;28;92350;-83
2022/07/28 05:33:09;;;;;;;4.68;1.20;;;22.60;72.50;;;;;;4866708;28;94747;-84
2022/07/28 05:35:34;;;;;;;6.25;1.17;;;23.30;70.70;;;;;;4870017;28;93333;-82
2022/07/28 05:38:00;;;;;;;4.95;1.30;;;23.50;71.60;;;;;;4865162;28;92252;-84
2022/07/28 05:40:26;;;;;;;3.40;1.13;;;24.90;67.30;;;;;;4864523;29;92264;-81
2022/07/28 05:42:52;;;;;;;2.33;1.10;;;26.00;64.00;;;;;;4873587;28;94045;-83
2022/07/28 05:45:18;;;;;;;4.32;1.52;;;26.60;63.80;;;;;;4871359;28;92110;-83
2022/07/28 05:47:51;;;;;;;2.00;0.98;;;27.70;61.30;;;;;;4882348;28;92389;-82
2022/07/28 05:50:18;;;;;;;3.22;1.35;;;29.00;58.00;;;;;;4884940;28;93269;-83
2022/07/28 05:52:45;;;;;;;1.70;0.93;;;30.30;54.80;;;;;;4883302;28;91846;-84
2022/07/28 05:55:11;;;;;;;3.40;1.25;;;32.00;54.50;;;;;;4883184;28;92030;-78
2022/07/28 05:57:38;;;;;;;3.20;1.52;;;32.80;50.10;;;;;;4894532;28;92064;-78
2022/07/28 06:00:07;;;;;;;3.45;1.83;;;33.20;50.00;;;;;;4881016;28;94727;-78
2022/07/28 06:02:33;;;;;;;3.28;1.15;;;33.00;48.70;;;;;;4873992;28;92780;-78
2022/07/28 06:04:58;;;;;;;2.22;1.55;;;33.70;48.70;;;;;;4877878;28;91608;-78
2022/07/28 06:07:24;;;;;;;3.75;1.35;;;33.90;45.60;;;;;;4875920;28;92603;-78
2022/07/28 06:09:50;;;;;;;3.05;2.00;;;33.10;48.70;;;;;;4878094;28;92369;-79
2022/07/28 06:12:15;;;;;;;3.47;1.85;;;33.80;47.20;;;;;;4895701;28;92115;-79
2022/07/28 06:14:41;;;;;;;3.97;1.65;;;34.10;45.80;;;;;;4896458;28;92407;-79
2022/07/28 06:17:07;;;;;;;5.43;1.85;;;34.50;47.20;;;;;;4889810;28;91330;-79
2022/07/28 06:19:32;;;;;;;2.67;2.03;;;34.40;46.80;;;;;;4877217;28;92150;-82
2022/07/28 06:21:58;;;;;;;3.22;1.75;;;35.00;46.80;;;;;;4877170;28;93317;-79
2022/07/28 06:24:24;;;;;;;3.88;1.38;;;35.80;44.90;;;;;;4876916;28;93043;-80
2022/07/28 06:26:50;;;;;;;3.60;2.25;;;35.60;44.80;;;;;;4876300;28;91955;-80
2022/07/28 06:29:15;;;;;;;3.17;1.95;;;36.10;44.40;;;;;;4877363;28;93506;-79
2022/07/28 06:31:41;;;;;;;3.22;2.05;;;35.90;44.70;;;;;;4886720;28;92139;-81
2022/07/28 06:34:07;;;;;;;4.20;2.17;;;36.10;44.60;;;;;;4896552;28;92353;-80
2022/07/28 06:36:32;;;;;;;3.70;1.95;;;36.20;43.70;;;;;;4896974;28;91659;-79
2022/07/28 06:38:58;;;;;;;4.68;2.97;;;36.10;43.40;;;;;;4874771;28;92196;-81
2022/07/28 06:41:24;;;;;;;5.05;2.75;;;36.00;43.50;;;;;;4880558;28;91881;-80
2022/07/28 06:43:51;;;;;;;3.17;2.05;;;36.50;42.90;;;;;;4878610;28;92043;-79
2022/07/28 06:46:18;;;;;;;4.28;2.08;;;36.20;43.80;;;;;;4877451;28;92246;-79
2022/07/28 06:48:44;;;;;;;3.20;2.45;;;36.60;43.60;;;;;;4877677;28;93743;-80
2022/07/28 06:51:11;;;;;;;5.65;2.65;;;37.40;42.80;;;;;;4880046;28;92243;-80
2022/07/28 06:53:37;;;;;;;2.40;1.63;;;37.70;42.40;;;;;;4884538;28;91566;-80
2022/07/28 06:56:04;;;;;;;3.53;2.33;;;38.00;41.80;;;;;;4881286;28;92258;-79
2022/07/28 06:58:30;;;;;;;4.45;2.10;;;38.80;40.50;;;;;;4878367;28;92156;-80
2022/07/28 07:00:55;;;;;;;4.03;2.50;;;38.50;40.50;;;;;;4893926;28;92469;-79
2022/07/28 07:03:21;;;;;;;4.72;2.13;;;38.80;40.60;;;;;;4885641;28;92324;-79
2022/07/28 07:05:47;;;;;;;3.13;2.38;;;39.60;39.80;;;;;;4882075;28;91283;-82
2022/07/28 07:08:13;;;;;;;4.38;2.08;;;40.30;40.00;;;;;;4884036;28;93600;-83
2022/07/28 07:10:38;;;;;;;5.05;2.92;;;41.30;38.50;;;;;;4881857;28;92243;-79
2022/07/28 07:13:04;;;;;;;5.45;3.80;;;41.00;37.20;;;;;;4868414;28;93267;-85
2022/07/28 07:15:31;;;;;;;5.93;2.65;;;40.60;38.60;;;;;;4862200;29;92149;-79
2022/07/28 07:17:57;;;;;;;5.82;2.45;;;41.00;37.70;;;;;;4880425;28;93653;-81
2022/07/28 07:20:22;;;;;;;5.13;2.78;;;41.00;38.20;;;;;;4883002;28;92126;-81
2022/07/28 07:22:49;;;;;;;5.80;2.83;;;41.70;36.80;;;;;;4883408;28;91666;-82
2022/07/28 07:25:17;;;;;;;3.25;2.58;;;41.70;37.30;;;;;;4865183;28;91921;-81
2022/07/28 07:27:44;;;;;;;4.03;2.70;;;41.40;37.30;;;;;;4880854;28;92508;-79
2022/07/28 07:30:10;;;;;;;5.32;2.55;;;42.20;37.40;;;;;;4878730;28;92014;-80
2022/07/28 07:32:37;;;;;;;4.45;2.40;;;42.70;36.30;;;;;;4878520;28;92440;-80
2022/07/28 07:35:04;;;;;;;5.82;3.65;;;42.20;37.20;;;;;;4878098;28;92506;-79
2022/07/28 07:37:31;;;;;;;3.90;3.50;;;42.80;36.90;;;;;;4896305;28;96038;-79
2022/07/28 07:39:58;;;;;;;4.05;3.25;;;42.90;36.70;;;;;;4897595;28;92894;-81
2022/07/28 07:42:25;;;;;;;5.03;2.85;;;43.10;35.50;;;;;;4898694;28;91923;-80
2022/07/28 07:44:51;;;;;;;4.80;3.65;;;43.40;35.50;;;;;;4882335;28;92014;-79
2022/07/28 07:47:17;;;;;;;5.15;3.13;;;43.70;35.60;;;;;;4886429;28;94331;-81
2022/07/28 07:49:43;;;;;;;4.38;3.28;;;42.10;37.00;;;;;;4863675;29;92582;-81
2022/07/28 07:52:09;;;;;;;9.20;3.47;;;42.40;36.50;;;;;;4870216;28;92433;-81
2022/07/28 07:54:34;;;;;;;5.05;3.63;;;43.00;35.40;;;;;;4863286;29;91270;-79
2022/07/28 07:57:00;;;;;;;3.78;3.35;;;41.90;36.40;;;;;;4862817;29;93240;-80
2022/07/28 07:59:26;;;;;;;4.88;3.20;;;41.80;36.60;;;;;;4864013;28;92232;-80
2022/07/28 08:01:54;;;;;;;11.50;3.45;;;42.90;36.10;;;;;;4867168;28;93149;-81
2022/07/28 08:04:21;;;;;;;7.00;3.47;;;42.30;36.30;;;;;;4863224;29;91977;-82
2022/07/28 08:06:48;;;;;;;4.60;3.80;;;42.20;36.60;;;;;;4863186;29;92221;-80
2022/07/28 08:09:15;;;;;;;3.80;3.15;;;42.30;37.00;;;;;;4866253;28;92355;-81
2022/07/28 08:11:41;;;;;;;7.63;4.03;;;43.40;35.80;;;;;;4865340;28;92056;-82
2022/07/28 08:14:06;;;;;;;5.25;3.40;;;43.50;35.60;;;;;;4864847;29;92207;-82
2022/07/28 08:16:32;;;;;;;5.57;4.13;;;43.60;35.20;;;;;;4865341;29;92245;-82
2022/07/28 08:18:58;;;;;;;5.75;4.65;;;43.40;35.20;;;;;;4866538;29;91272;-82
2022/07/28 08:21:25;;;;;;;4.63;3.47;;;43.80;35.20;;;;;;4862432;29;91959;-79
2022/07/28 08:23:51;;;;;;;4.10;3.70;;;44.40;34.70;;;;;;4862942;28;92634;-80
2022/07/28 08:26:17;;;;;;;5.55;4.18;;;43.70;34.30;;;;;;4879776;28;93076;-81
2022/07/28 08:28:43;;;;;;;7.18;4.20;;;43.20;34.70;;;;;;4883403;28;93028;-84
2022/07/28 08:31:09;;;;;;;5.88;5.15;;;43.40;34.90;;;;;;4876795;28;92112;-82
2022/07/28 08:33:34;;;;;;;6.13;4.68;;;42.70;36.00;;;;;;4866179;29;92462;-82
2022/07/28 08:36:00;;;;;;;5.38;4.88;;;43.60;34.80;;;;;;4868230;28;92274;-83
2022/07/28 08:38:26;;;;;;;7.68;5.55;;;43.70;35.00;;;;;;4864366;29;92513;-81
2022/07/28 08:40:56;;;;;;;7.50;4.32;;;43.50;34.60;;;;;;4867153;28;92240;-82
2022/07/28 08:43:38;;;;;;;5.97;5.28;;;45.30;33.70;;;;;;4865047;28;91470;-82
2022/07/28 08:46:05;;;;;;;6.00;4.63;;;45.30;33.20;;;;;;4863137;29;92136;-83
2022/07/28 08:48:42;;;;;;;5.88;4.88;;;44.10;33.90;;;;;;4878829;28;92271;-81
2022/07/28 08:51:10;;;;;;;8.32;6.40;;;44.10;34.80;;;;;;4885237;28;92982;-82
2022/07/28 08:53:38;;;;;;;8.07;4.88;;;45.50;32.90;;;;;;4881942;28;91919;-84
2022/07/28 08:56:07;;;;;;;;;;;44.80;33.20;;;;;;4887292;28;92266;-82
2022/07/28 08:58:35;;;;;;;5.18;4.68;;;44.60;34.30;;;;;;4903067;28;91969;-83
2022/07/28 09:01:01;;;;;;;6.20;5.65;;;45.20;33.10;;;;;;4896795;28;92146;-81
2022/07/28 09:03:28;;;;;;;7.60;5.60;;;44.10;33.70;;;;;;4883312;28;92000;-82
2022/07/28 09:05:55;;;;;;;6.00;4.82;;;44.70;33.50;;;;;;4882640;28;92831;-82
2022/07/28 09:08:22;;;;;;;8.10;4.82;;;44.20;33.80;;;;;;4884575;28;92218;-80
2022/07/28 09:10:48;;;;;;;6.57;5.07;;;45.60;33.40;;;;;;4886675;28;92375;-78
2022/07/28 09:13:16;;;;;;;8.60;4.65;;;46.90;32.40;;;;;;4867023;28;92039;-79
2022/07/28 09:15:44;;;;;;;5.50;5.00;;;46.60;31.80;;;;;;4883374;28;93294;-81
2022/07/28 09:18:13;;;;;;;6.43;4.55;;;47.10;32.20;;;;;;4898036;28;93105;-83
2022/07/28 09:20:40;;;;;;;6.05;5.45;;;47.80;31.00;;;;;;4879812;28;92242;-80
2022/07/28 09:23:06;;;;;;;11.40;5.65;;;48.40;30.80;;;;;;4880074;28;92362;-78
2022/07/28 09:25:32;;;;;;;6.05;5.10;;;46.70;31.50;;;;;;4876712;28;92794;-81
2022/07/28 09:28:07;;;;;;;5.68;5.18;;;47.90;30.20;;;;;;4878765;28;92276;-78
2022/07/28 09:30:36;;;;;;;6.28;5.68;;;46.80;31.20;;;;;;4879240;28;92041;-78
2022/07/28 09:33:24;;;;;;;9.02;6.07;;;47.10;31.50;;;;;;4886391;28;91493;-78
2022/07/28 09:35:56;;;;;;;8.10;5.72;;;48.60;30.40;;;;;;4889170;28;95101;-79
2022/07/28 09:38:24;;;;;;;5.10;4.60;;;48.00;30.00;;;;;;4879521;28;92250;-78
2022/07/28 09:40:59;;;;;;;6.13;4.72;;;45.90;31.90;;;;;;4878075;28;92998;-79
2022/07/28 09:43:40;;;;;;;7.38;6.55;;;44.80;32.70;;;;;;4873316;28;92092;-80
2022/07/28 09:46:13;;;;;;;7.00;5.43;;;46.70;31.70;;;;;;4875809;28;92177;-78
2022/07/28 09:48:58;;;;;;;6.25;5.65;;;46.70;32.10;;;;;;4859919;29;92018;-81
2022/07/28 09:51:25;;;;;;;7.03;6.13;;;46.40;31.70;;;;;;4888988;28;92215;-79
2022/07/28 09:53:52;;;;;;;5.78;5.10;;;44.80;33.20;;;;;;4890353;28;92158;-83
2022/07/28 09:56:18;;;;;;;5.35;4.85;;;45.40;32.80;;;;;;4860204;29;92336;-81
2022/07/28 09:58:56;;;;;;;7.18;5.97;;;45.20;33.40;;;;;;4863023;29;92781;-83
2022/07/28 10:01:22;;;;;;;5.75;5.18;;;45.20;33.40;;;;;;4870904;28;92080;-83
2022/07/28 10:03:54;;;;;;;6.63;6.00;;;44.70;33.70;;;;;;4881587;28;92222;-82
2022/07/28 10:06:32;;;;;;;5.60;5.03;;;45.30;33.00;;;;;;4882336;28;93034;-80
2022/07/28 10:09:00;;;;;;;8.93;5.43;;;45.70;33.00;;;;;;4882905;28;92898;-80
2022/07/28 10:11:28;;;;;;;6.30;5.70;;;45.40;32.60;;;;;;4895574;28;92383;-80
2022/07/28 10:13:58;;;;;;;5.95;5.45;;;45.00;33.20;;;;;;4890013;28;92859;-80
2022/07/28 10:16:53;;;;;;;6.25;5.25;;;45.40;32.80;;;;;;4880889;28;93415;-80
2022/07/28 10:19:20;;;;;;;7.90;4.38;;;43.50;33.40;;;;;;4876826;28;92412;-80
2022/07/28 10:21:48;;;;;;;5.53;5.00;;;39.80;37.20;;;;;;4880113;28;92326;-80
2022/07/28 10:24:20;;;;;;;4.80;3.65;;;37.50;38.90;;;;;;4881241;28;91652;-80
2022/07/28 10:26:47;;;;;;;5.00;4.20;;;35.40;43.60;;;;;;4877914;28;92273;-79
2022/07/28 10:29:17;;;;;;;5.43;2.83;;;34.20;44.10;;;;;;4878242;28;92885;-79
2022/07/28 10:31:52;;;;;;;5.43;3.83;;;33.50;45.20;;;;;;4878121;28;92948;-79
2022/07/28 10:34:33;;;;;;;4.47;2.92;;;32.90;45.60;;;;;;4877421;28;92119;-79
2022/07/28 10:37:02;;;;;;;5.35;2.42;;;31.50;47.90;;;;;;4870437;28;92022;-80
2022/07/28 10:39:35;;;;;;;3.88;2.33;;;30.80;49.10;;;;;;4858108;29;92546;-79
2022/07/28 10:42:02;;;;;;;3.55;1.80;;;30.60;50.90;;;;;;4876543;28;92376;-81
2022/07/28 10:44:30;;;;;;;5.35;2.10;;;30.40;50.50;;;;;;4877549;28;92124;-79
2022/07/28 10:46:56;;;;;;;3.97;2.03;;;30.10;51.40;;;;;;4874926;28;92389;-80
2022/07/28 10:49:23;;;;;;;2.90;1.80;;;29.90;52.80;;;;;;4877335;28;92027;-78
2022/07/28 10:51:49;;;;;;;2.90;1.80;;;29.70;53.20;;;;;;4877778;28;92073;-79
2022/07/28 10:54:40;;;;;;;5.40;2.65;;;30.10;52.00;;;;;;4876593;28;92105;-78
2022/07/28 10:57:09;;;;;;;4.10;1.98;;;30.20;51.10;;;;;;4856845;28;93655;-78
2022/07/28 10:59:49;;;;;;;2.95;1.85;;;29.70;54.20;;;;;;4877499;28;93430;-79
2022/07/28 11:02:48;;;;;;;3.33;1.88;;;29.80;53.80;;;;;;4877362;28;92014;-79
2022/07/28 11:05:32;;;;;;;3.17;1.48;;;30.30;52.10;;;;;;4859496;28;92360;-79
2022/07/28 11:08:04;;;;;;;2.47;1.30;;;30.40;51.30;;;;;;4868905;28;92682;-80
2022/07/28 11:10:46;;;;;;;3.15;1.95;;;30.80;52.20;;;;;;4881417;28;92130;-79
2022/07/28 11:13:25;;;;;;;4.00;2.13;;;30.70;52.20;;;;;;4895523;28;91983;-79
2022/07/28 11:15:51;;;;;;;5.65;2.30;;;30.50;52.30;;;;;;4883498;28;91479;-79
2022/07/28 11:18:18;;;;;;;5.95;1.88;;;30.00;53.20;;;;;;4876536;28;92198;-81
2022/07/28 11:21:04;;;;;;;3.47;2.30;;;30.00;52.80;;;;;;4876903;28;92727;-78
2022/07/28 11:23:45;;;;;;;3.65;2.05;;;29.60;51.80;;;;;;4878844;28;93059;-79
2022/07/28 11:26:20;;;;;;;4.50;2.20;;;29.40;54.80;;;;;;4880412;28;92393;-79
2022/07/28 11:29:19;;;;;;;3.70;2.00;;;29.70;54.10;;;;;;4877340;28;92410;-79
2022/07/28 11:31:45;;;;;;;3.53;2.20;;;29.80;52.60;;;;;;4885964;28;92080;-78
2022/07/28 11:34:11;;;;;;;3.83;2.22;;;29.30;54.90;;;;;;4899391;28;92094;-79
2022/07/28 11:37:00;;;;;;;3.42;1.92;;;29.00;55.90;;;;;;4898934;28;92495;-79
2022/07/28 11:39:37;;;;;;;6.88;2.40;;;29.00;54.50;;;;;;4893521;28;92311;-80
2022/07/28 11:42:29;;;;;;;3.67;2.47;;;29.00;55.60;;;;;;4880034;28;91965;-79
2022/07/28 11:44:56;;;;;;;7.82;2.58;;;28.80;56.60;;;;;;4879789;28;92368;-78
2022/07/28 11:47:24;;;;;;;3.77;2.10;;;28.80;57.60;;;;;;4837011;28;1244056;-78
2022/07/28 11:50:10;;;;;;;4.72;1.98;;;28.80;56.10;;;;;;4879386;28;93170;-79
2022/07/28 11:52:37;;;;;;;3.90;1.77;;;28.80;58.40;;;;;;4880101;28;92834;-79
2022/07/28 11:55:04;;;;;;;6.28;2.15;;;29.20;57.60;;;;;;4880557;28;91628;-78
2022/07/28 11:57:38;;;;;;;2.53;1.90;;;29.40;56.60;;;;;;4880844;28;92524;-79
2022/07/28 12:00:05;;;;;;;5.72;2.33;;;29.30;57.00;;;;;;4861763;28;92248;-79
2022/07/28 12:02:32;;;;;;;3.95;2.53;;;29.10;57.00;;;;;;4860799;29;92016;-78
2022/07/28 12:05:02;;;;;;;3.47;1.70;;;29.00;56.80;;;;;;4862263;28;92545;-79
2022/07/28 12:07:32;;;;;;;4.50;1.77;;;29.00;57.50;;;;;;4880695;28;91432;-79
2022/07/28 12:09:58;;;;;;;4.18;2.08;;;29.00;56.50;;;;;;4880994;28;93205;-81
2022/07/28 12:12:26;;;;;;;5.60;2.55;;;28.80;57.40;;;;;;4878849;28;93020;-79
2022/07/28 12:14:56;;;;;;;18.33;5.18;;;28.90;57.00;;;;;;4879660;28;92964;-79
2022/07/28 12:17:31;;;;;;;5.82;2.35;;;29.00;59.90;;;;;;4880182;28;92661;-78
2022/07/28 12:20:07;;;;;;;6.47;1.95;;;29.00;56.60;;;;;;4877662;28;92283;-79
2022/07/28 12:22:32;;;;;;;5.50;2.50;;;28.90;58.30;;;;;;4868723;28;92577;-78
2022/07/28 12:24:58;;;;;;;14.73;4.53;;;28.70;57.60;;;;;;4880305;28;92148;-78
2022/07/28 12:27:27;;;;;;;5.05;2.47;;;28.80;58.80;;;;;;4880750;28;92123;-79
2022/07/28 12:29:58;;;;;;;4.43;2.30;;;28.90;56.10;;;;;;4878672;28;92166;-78
2022/07/28 12:32:36;;;;;;;5.72;2.95;;;28.90;58.30;;;;;;4879938;28;92280;-79
2022/07/28 12:35:02;;;;;;;5.40;3.00;;;28.90;58.50;;;;;;4879332;28;92082;-78
2022/07/28 12:37:28;;;;;;;6.20;2.40;;;28.90;58.30;;;;;;4896476;28;91901;-81
2022/07/28 12:39:54;;;;;;;5.90;2.40;;;28.90;60.20;;;;;;4897861;28;92899;-79
2022/07/28 12:42:20;;;;;;;8.52;2.58;;;29.00;56.40;;;;;;4893576;28;92280;-78
2022/07/28 12:44:47;;;;;;;4.15;1.85;;;29.20;58.10;;;;;;4860782;29;92002;-79
2022/07/28 12:47:16;;;;;;;4.50;2.03;;;29.50;56.90;;;;;;4860510;29;92065;-78
2022/07/28 12:49:43;;;;;;;7.18;1.80;;;29.50;56.90;;;;;;4859695;29;93822;-78
2022/07/28 12:52:23;;;;;;;5.72;2.53;;;29.30;56.80;;;;;;4860245;28;92350;-79
2022/07/28 12:54:50;;;;;;;4.10;2.38;;;29.30;55.60;;;;;;4879320;28;91983;-80
2022/07/28 12:57:16;;;;;;;3.08;2.17;;;29.10;57.50;;;;;;4879888;28;91520;-78
2022/07/28 12:59:41;;;;;;;3.55;1.80;;;29.00;56.80;;;;;;4879038;28;92161;-78
2022/07/28 13:02:08;;;;;;;4.25;2.25;;;29.00;58.50;;;;;;4878029;28;92192;-80
2022/07/28 13:04:46;;;;;;;2.95;1.92;;;29.30;56.40;;;;;;4875770;28;93015;-80
2022/07/28 13:07:33;;;;;;;5.10;2.17;;;29.30;58.30;;;;;;4859572;28;92054;-78
2022/07/28 13:10:07;;;;;;;5.22;2.30;;;29.30;59.20;;;;;;4861255;28;92642;-79
2022/07/28 13:12:34;;;;;;;3.20;2.15;;;29.10;57.90;;;;;;4897035;28;92079;-81
2022/07/28 13:15:13;;;;;;;3.42;1.83;;;29.10;57.80;;;;;;4878852;28;92326;-78
2022/07/28 13:17:51;;;;;;;5.65;2.22;;;29.40;57.60;;;;;;4878017;28;92088;-79
2022/07/28 13:20:17;;;;;;;4.68;2.42;;;29.50;56.80;;;;;;4861999;28;93297;-78
2022/07/28 13:22:45;;;;;;;6.45;2.00;;;29.50;57.40;;;;;;4860972;29;91880;-78
2022/07/28 13:25:12;;;;;;;5.10;2.17;;;29.40;58.90;;;;;;4860133;29;92095;-79
2022/07/28 13:27:38;;;;;;;6.15;2.75;;;29.30;58.60;;;;;;4880194;28;92224;-79
2022/07/28 13:30:06;;;;;;;4.45;2.25;;;29.50;57.10;;;;;;4882597;28;92890;-77
2022/07/28 13:32:32;;;;;;;7.05;2.67;;;29.30;57.50;;;;;;4878857;28;94619;-78
2022/07/28 13:34:58;;;;;;;3.38;2.00;;;29.30;58.20;;;;;;4879382;28;93339;-80
2022/07/28 13:37:24;;;;;;;8.88;1.90;;;29.30;56.50;;;;;;4888169;28;91594;-79
2022/07/28 13:39:50;;;;;;;6.70;2.38;;;29.40;59.50;;;;;;4884650;28;92152;-78
2022/07/28 13:42:17;;;;;;;4.10;2.35;;;29.40;57.40;;;;;;4878936;28;92990;-79
2022/07/28 13:44:42;;;;;;;3.08;2.17;;;29.50;57.00;;;;;;4879038;28;92120;-78
2022/07/28 13:47:08;;;;;;;6.40;2.88;;;29.40;58.50;;;;;;4883333;28;91258;-77
2022/07/28 13:49:38;;;;;;;5.55;2.67;;;29.40;57.60;;;;;;4887686;28;91947;-78
2022/07/28 13:52:06;;;;;;;6.97;2.88;;;29.50;56.90;;;;;;4875930;28;93603;-79
2022/07/28 13:54:32;;;;;;;7.85;2.60;;;29.50;58.10;;;;;;4878909;28;92968;-80
2022/07/28 13:57:14;;;;;;;5.30;2.03;;;29.40;56.10;;;;;;4879275;28;92134;-78
2022/07/28 13:59:40;;;;;;;5.43;2.22;;;29.60;55.90;;;;;;4877755;28;92032;-78
2022/07/28 14:02:06;;;;;;;4.45;1.73;;;29.50;57.70;;;;;;4879138;28;92215;-78
2022/07/28 14:04:31;;;;;;;4.82;1.85;;;29.40;58.80;;;;;;4879271;28;91539;-77
2022/07/28 14:06:57;;;;;;;5.10;2.20;;;29.40;57.70;;;;;;4878930;28;92008;-77
2022/07/28 14:09:23;;;;;;;4.50;1.95;;;29.30;54.80;;;;;;4893014;28;92013;-78
2022/07/28 14:11:49;;;;;;;4.82;2.15;;;29.40;56.70;;;;;;4889538;28;91898;-79
2022/07/28 14:14:15;;;;;;;6.22;2.28;;;29.30;57.40;;;;;;4879407;28;92068;-80
2022/07/28 14:16:43;;;;;;;4.65;2.17;;;29.30;56.80;;;;;;4879200;28;92086;-77
2022/07/28 14:19:08;;;;;;;6.43;2.45;;;29.50;58.00;;;;;;4890343;28;93526;-79
2022/07/28 14:21:34;;;;;;;4.65;2.08;;;29.70;55.80;;;;;;4880574;28;95088;-78
2022/07/28 14:23:59;;;;;;;5.13;2.03;;;29.80;55.80;;;;;;4886638;28;92018;-77
2022/07/28 14:26:25;;;;;;;3.33;2.03;;;29.60;55.20;;;;;;4878780;28;92085;-80
2022/07/28 14:28:51;;;;;;;3.17;1.88;;;29.60;55.50;;;;;;4878266;28;92354;-79
2022/07/28 14:31:17;;;;;;;4.97;1.95;;;29.60;56.60;;;;;;4890898;28;92311;-79
2022/07/28 14:33:42;;;;;;;4.43;2.00;;;29.60;55.50;;;;;;4897512;28;92141;-77
2022/07/28 14:36:08;;;;;;;4.80;2.28;;;29.40;58.40;;;;;;4878030;28;91662;-78
2022/07/28 14:38:34;;;;;;;2.72;2.03;;;29.40;55.20;;;;;;4859669;29;91996;-79
2022/07/28 14:41:00;;;;;;;4.72;1.98;;;29.50;55.00;;;;;;4859217;29;92076;-78
2022/07/28 14:43:25;;;;;;;5.28;3.00;;;29.60;56.60;;;;;;4882890;28;93213;-78
2022/07/28 14:45:51;;;;;;;5.15;2.08;;;29.70;55.90;;;;;;4898146;28;91840;-79
2022/07/28 14:48:17;;;;;;;4.75;2.03;;;29.60;57.20;;;;;;4878349;28;92310;-80
2022/07/28 14:50:44;;;;;;;3.58;2.10;;;29.40;56.40;;;;;;4878609;28;92044;-78
2022/07/28 14:53:09;;;;;;;4.75;2.20;;;29.40;56.30;;;;;;4878615;28;92060;-77
2022/07/28 14:55:35;;;;;;;4.22;1.85;;;29.40;56.10;;;;;;4878461;28;92101;-79
2022/07/28 14:58:02;;;;;;;5.35;2.00;;;29.40;56.40;;;;;;4877359;28;92271;-79
2022/07/28 15:00:28;;;;;;;4.82;2.00;;;29.50;57.30;;;;;;4876463;28;91933;-81
2022/07/28 15:02:53;;;;;;;4.28;2.05;;;29.40;56.40;;;;;;4878404;28;91625;-79
2022/07/28 15:05:21;;;;;;;9.23;3.05;;;29.30;55.40;;;;;;4878470;28;92136;-78
2022/07/28 15:07:50;;;;;;;4.20;2.13;;;29.20;56.40;;;;;;4878087;28;94149;-77
2022/07/28 15:10:16;;;;;;;6.00;2.00;;;29.20;57.20;;;;;;4879925;28;93695;-78
2022/07/28 15:12:42;;;;;;;2.78;1.63;;;29.20;57.90;;;;;;4897171;28;91992;-80
2022/07/28 15:15:09;;;;;;;8.20;2.33;;;29.40;57.10;;;;;;4897579;28;91936;-80
2022/07/28 15:17:36;;;;;;;5.15;2.30;;;29.50;56.80;;;;;;4896322;28;95268;-77
2022/07/28 15:20:04;;;;;;;6.93;2.38;;;29.40;57.40;;;;;;4886650;28;92384;-78
2022/07/28 15:22:30;;;;;;;3.17;1.60;;;29.30;57.30;;;;;;4878479;28;92039;-80
2022/07/28 15:24:56;;;;;;;4.80;2.35;;;29.40;57.10;;;;;;4877999;28;91440;-80
2022/07/28 15:27:22;;;;;;;3.97;1.83;;;29.60;56.10;;;;;;4877989;28;92735;-77
2022/07/28 15:29:48;;;;;;;2.75;1.95;;;29.40;57.10;;;;;;4875754;28;92014;-78
2022/07/28 15:32:13;;;;;;;5.63;2.25;;;29.40;56.30;;;;;;4877879;28;93226;-77
2022/07/28 15:34:39;;;;;;;2.65;1.30;;;29.50;56.00;;;;;;4895996;28;92248;-80
2022/07/28 15:37:05;;;;;;;4.65;1.85;;;29.20;55.90;;;;;;4896439;28;92160;-81
2022/07/28 15:39:31;;;;;;;6.18;2.03;;;29.20;57.70;;;;;;4893002;28;92438;-81
2022/07/28 15:41:56;;;;;;;3.80;1.52;;;29.10;58.00;;;;;;4877864;28;92029;-79